createdAt,value
2019-05-18T00:02:10.189Z,3.00
2019-05-18T00:04:54.944Z,3.20
2019-05-18T00:07:39.780Z,2.85
2019-05-18T00:10:24.608Z,2.98
2019-05-18T00:13:09.349Z,2.83
2019-05-18T00:15:54.190Z,3.33
2019-05-18T00:18:39.217Z,3.27
2019-05-18T00:21:23.945Z,3.15
2019-05-18T00:24:08.866Z,3.02
2019-05-18T00:26:53.604Z,3.10
2019-05-18T00:29:39.025Z,3.33
2019-05-18T00:32:23.746Z,3.60
2019-05-18T00:35:08.776Z,3.75
2019-05-18T00:37:53.949Z,3.67
2019-05-18T00:40:38.739Z,4.00
2019-05-18T00:43:23.741Z,4.15
2019-05-18T00:46:08.546Z,4.15
2019-05-18T00:48:53.501Z,4.65
2019-05-18T00:51:38.273Z,4.87
2019-05-18T00:54:23.115Z,4.65
2019-05-18T00:57:07.867Z,4.80
2019-05-18T00:59:54.074Z,5.05
2019-05-18T01:02:38.932Z,5.00
2019-05-18T01:05:23.826Z,5.35
2019-05-18T01:08:09.137Z,5.35
2019-05-18T01:10:53.894Z,5.80
2019-05-18T01:13:38.734Z,5.42
2019-05-18T01:16:23.440Z,5.37
2019-05-18T01:19:08.531Z,5.72
2019-05-18T01:21:53.125Z,5.33
2019-05-18T01:24:37.957Z,5.50
2019-05-18T01:27:22.812Z,5.80
2019-05-18T01:30:08.651Z,4.80
2019-05-18T01:32:53.921Z,5.22
2019-05-18T01:35:38.666Z,4.92
2019-05-18T01:38:23.485Z,5.30
2019-05-18T01:41:08.200Z,5.30
2019-05-18T01:43:53.093Z,5.08
2019-05-18T01:46:37.841Z,5.33
2019-05-18T01:49:22.619Z,4.35
2019-05-18T01:52:07.674Z,4.78
2019-05-18T01:54:52.436Z,4.72
2019-05-18T01:57:37.332Z,5.05
2019-05-18T02:00:22.256Z,4.87
2019-05-18T02:03:07.469Z,5.00
2019-05-18T02:05:52.186Z,4.30
2019-05-18T02:08:37.908Z,4.60
2019-05-18T02:11:22.783Z,4.55
2019-05-18T02:14:08.277Z,4.83
2019-05-18T02:16:53.457Z,4.90
2019-05-18T02:19:38.305Z,4.53
2019-05-18T02:22:23.173Z,4.70
2019-05-18T02:25:08.103Z,4.78
2019-05-18T02:27:53.153Z,4.33
2019-05-18T02:30:38.159Z,4.50
2019-05-18T02:33:23.277Z,4.95
2019-05-18T02:36:08.141Z,5.50
2019-05-18T02:38:53.005Z,4.87
2019-05-18T02:41:38.039Z,4.97
2019-05-18T02:44:22.932Z,5.20
2019-05-18T02:47:07.710Z,4.65
2019-05-18T02:49:52.459Z,5.03
2019-05-18T02:52:37.436Z,5.33
2019-05-18T02:55:22.243Z,4.67
2019-05-18T02:58:06.975Z,4.80
2019-05-18T03:00:51.977Z,4.87
2019-05-18T03:03:36.740Z,4.60
2019-05-18T03:06:21.826Z,5.03
2019-05-18T03:09:07.070Z,5.08
2019-05-18T03:11:52.317Z,5.22
2019-05-18T03:14:37.099Z,5.05
2019-05-18T03:17:23.028Z,4.92
2019-05-18T03:20:08.708Z,4.70
2019-05-18T03:22:53.681Z,4.15
2019-05-18T03:25:38.599Z,4.25
2019-05-18T03:28:23.325Z,4.78
2019-05-18T03:31:08.149Z,5.10
2019-05-18T03:33:52.888Z,4.53
2019-05-18T03:36:37.676Z,4.55
2019-05-18T03:39:22.553Z,4.62
2019-05-18T03:42:07.167Z,4.40
2019-05-18T03:44:52.022Z,4.42
2019-05-18T03:47:36.598Z,4.70
2019-05-18T03:50:21.501Z,4.05
2019-05-18T03:53:06.349Z,4.55
2019-05-18T03:55:51.377Z,4.00
2019-05-18T03:58:36.047Z,4.60
2019-05-18T04:01:20.916Z,4.78
2019-05-18T04:04:05.660Z,4.10
2019-05-18T04:06:50.372Z,4.33
2019-05-18T04:09:35.025Z,4.33
2019-05-18T04:12:19.729Z,4.15
2019-05-18T04:15:05.693Z,4.62
2019-05-18T04:17:50.421Z,4.97
2019-05-18T04:20:35.513Z,4.42
2019-05-18T04:23:20.299Z,4.55
2019-05-18T04:26:05.035Z,4.40
2019-05-18T04:28:49.796Z,4.53
2019-05-18T04:31:34.595Z,4.55
2019-05-18T04:34:19.311Z,4.33
2019-05-18T04:37:04.181Z,4.10
2019-05-18T04:39:48.916Z,4.45
2019-05-18T04:42:33.852Z,4.58
2019-05-18T04:45:19.411Z,4.72
2019-05-18T04:48:04.372Z,4.50
2019-05-18T04:50:49.383Z,4.55
2019-05-18T04:53:34.007Z,4.58
2019-05-18T04:56:18.800Z,4.70
2019-05-18T04:59:03.648Z,4.33
2019-05-18T05:01:48.412Z,4.50
2019-05-18T05:04:33.302Z,4.40
2019-05-18T05:07:18.126Z,4.20
2019-05-18T05:10:05.157Z,4.70
2019-05-18T05:12:49.961Z,4.75
2019-05-18T05:15:34.744Z,3.95
2019-05-18T05:18:19.525Z,4.35
2019-05-18T05:21:04.458Z,4.85
2019-05-18T05:23:49.204Z,4.40
2019-05-18T05:26:34.118Z,4.95
2019-05-18T05:29:19.030Z,4.75
2019-05-18T05:32:03.877Z,4.35
2019-05-18T05:34:48.710Z,4.85
2019-05-18T05:37:33.476Z,4.85
2019-05-18T05:40:18.287Z,4.83
2019-05-18T05:43:03.029Z,4.28
2019-05-18T05:45:47.759Z,4.35
2019-05-18T05:48:32.583Z,5.22
2019-05-18T05:51:17.293Z,5.03
2019-05-18T05:54:02.445Z,4.67
2019-05-18T05:56:47.561Z,4.65
2019-05-18T05:59:33.610Z,5.55
2019-05-18T06:02:18.426Z,4.78
2019-05-18T06:05:06.148Z,5.50
2019-05-18T06:07:51.041Z,5.78
2019-05-18T06:10:35.844Z,5.47
2019-05-18T06:13:20.802Z,4.65
2019-05-18T06:16:05.608Z,4.42
2019-05-18T06:18:50.486Z,4.62
2019-05-18T06:21:35.103Z,4.55
2019-05-18T06:24:19.930Z,4.37
2019-05-18T06:27:04.725Z,4.50
2019-05-18T06:29:49.550Z,4.97
2019-05-18T06:32:34.390Z,4.90
2019-05-18T06:35:19.375Z,5.25
2019-05-18T06:38:04.303Z,4.53
2019-05-18T06:40:49.080Z,4.85
2019-05-18T06:43:33.914Z,4.40
2019-05-18T06:46:18.681Z,4.85
2019-05-18T06:49:03.551Z,5.72
2019-05-18T06:51:48.661Z,5.40
2019-05-18T06:54:33.929Z,5.50
2019-05-18T06:57:19.933Z,5.10
2019-05-18T07:00:08.835Z,5.15
2019-05-18T07:02:54.238Z,4.97
2019-05-18T07:05:39.593Z,5.00
2019-05-18T07:08:24.685Z,5.33
2019-05-18T07:11:09.777Z,5.42
2019-05-18T07:13:54.533Z,5.25
2019-05-18T07:16:39.301Z,5.17
2019-05-18T07:19:24.014Z,5.20
2019-05-18T07:22:08.749Z,5.80
2019-05-18T07:24:53.481Z,5.22
2019-05-18T07:27:38.224Z,4.92
2019-05-18T07:30:23.274Z,4.90
2019-05-18T07:33:08.506Z,5.08
2019-05-18T07:35:53.809Z,5.78
2019-05-18T07:38:38.793Z,4.97
2019-05-18T07:41:23.924Z,4.65
2019-05-18T07:44:08.623Z,5.12
2019-05-18T07:46:53.294Z,5.10
2019-05-18T07:49:38.094Z,5.05
2019-05-18T07:52:23.810Z,5.20
2019-05-18T07:55:09.311Z,4.90
2019-05-18T07:57:54.080Z,5.30
2019-05-18T08:00:38.876Z,5.37
2019-05-18T08:03:23.614Z,5.70
2019-05-18T08:06:08.427Z,5.80
2019-05-18T08:08:53.059Z,5.90
2019-05-18T08:11:38.357Z,5.37
2019-05-18T08:14:23.234Z,5.92
2019-05-18T08:17:08.110Z,5.65
2019-05-18T08:19:53.093Z,5.80
2019-05-18T08:22:37.909Z,5.03
2019-05-18T08:25:22.883Z,5.83
2019-05-18T08:28:07.732Z,5.95
2019-05-18T08:30:52.562Z,6.00
2019-05-18T08:33:37.454Z,6.10
2019-05-18T08:36:22.670Z,6.03
2019-05-18T08:39:07.539Z,6.05
2019-05-18T08:41:52.244Z,6.92
2019-05-18T08:44:37.206Z,6.90
2019-05-18T08:47:22.128Z,6.95
2019-05-18T08:50:08.491Z,6.40
2019-05-18T08:52:53.416Z,6.10
2019-05-18T08:55:38.154Z,6.55
2019-05-18T08:58:22.903Z,6.40
2019-05-18T09:01:07.698Z,6.15
2019-05-18T09:03:52.557Z,7.15
2019-05-18T09:06:37.396Z,6.85
2019-05-18T09:09:22.325Z,7.28
2019-05-18T09:12:07.250Z,7.30
2019-05-18T09:14:52.192Z,7.05
2019-05-18T09:17:37.102Z,6.25
2019-05-18T09:20:22.866Z,6.78
2019-05-18T09:23:07.598Z,5.87
2019-05-18T09:25:52.397Z,6.62
2019-05-18T09:28:37.314Z,7.17
2019-05-18T09:31:22.277Z,7.35
2019-05-18T09:34:07.196Z,7.05
2019-05-18T09:36:52.037Z,7.12
2019-05-18T09:39:36.970Z,6.78
2019-05-18T09:42:21.767Z,6.42
2019-05-18T09:45:08.164Z,6.40
2019-05-18T09:47:53.700Z,6.92
2019-05-18T09:50:38.522Z,6.55
2019-05-18T09:53:23.406Z,6.37
2019-05-18T09:56:08.236Z,7.20
2019-05-18T09:58:53.089Z,7.30
2019-05-18T10:01:38.038Z,7.22
2019-05-18T10:04:22.877Z,5.65
2019-05-18T10:07:07.605Z,7.40
2019-05-18T10:09:52.739Z,7.05
2019-05-18T10:12:37.937Z,8.10
2019-05-18T10:15:23.074Z,7.28
2019-05-18T10:18:08.013Z,6.80
2019-05-18T10:20:52.913Z,6.95
2019-05-18T10:23:40.386Z,6.78
2019-05-18T10:26:24.465Z,6.42
2019-05-18T10:29:09.416Z,5.97
2019-05-18T10:31:54.354Z,6.20
2019-05-18T10:34:39.110Z,7.10
2019-05-18T10:37:24.017Z,6.75
2019-05-18T10:40:09.410Z,6.03
2019-05-18T10:42:54.282Z,6.17
2019-05-18T10:45:39.184Z,7.40
2019-05-18T10:48:24.355Z,6.30
2019-05-18T10:51:09.141Z,5.83
2019-05-18T10:53:54.039Z,6.72
2019-05-18T10:56:39.064Z,6.97
2019-05-18T10:59:25.196Z,6.80
2019-05-18T11:02:10.086Z,6.08
2019-05-18T11:04:55.382Z,6.33
2019-05-18T11:07:40.200Z,5.50
2019-05-18T11:10:25.346Z,7.62
2019-05-18T11:13:10.482Z,6.65
2019-05-18T11:16:15.103Z,7.17
2019-05-18T11:19:00.034Z,5.30
2019-05-18T11:21:44.887Z,4.62
2019-05-18T11:24:30.245Z,4.67
2019-05-18T11:27:14.998Z,4.87
2019-05-18T11:30:00.000Z,4.47
2019-05-18T11:32:44.934Z,3.45
2019-05-18T11:35:29.702Z,4.08
2019-05-18T11:38:14.506Z,3.62
2019-05-18T11:41:00.658Z,4.55
2019-05-18T11:43:45.596Z,3.60
2019-05-18T11:46:30.485Z,3.87
2019-05-18T11:49:15.522Z,4.08
2019-05-18T11:52:00.679Z,3.70
2019-05-18T11:54:45.487Z,2.98
2019-05-18T11:57:31.236Z,3.75
2019-05-18T12:00:16.803Z,3.70
2019-05-18T12:03:01.784Z,4.17
2019-05-18T12:05:46.477Z,3.00
2019-05-18T12:08:31.286Z,2.60
2019-05-18T12:11:16.069Z,2.90
2019-05-18T12:14:00.990Z,2.77
2019-05-18T12:16:45.567Z,3.75
2019-05-18T12:19:30.346Z,3.25
2019-05-18T12:22:15.040Z,2.95
2019-05-18T12:24:59.837Z,2.85
2019-05-18T12:27:44.794Z,2.00
2019-05-18T12:30:31.185Z,2.90
2019-05-18T12:33:16.500Z,2.15
2019-05-18T12:36:01.301Z,2.77
2019-05-18T12:38:46.279Z,3.08
2019-05-18T12:41:30.941Z,2.80
2019-05-18T12:44:15.939Z,2.37
2019-05-18T12:47:00.675Z,2.22
2019-05-18T12:49:45.538Z,2.15
2019-05-18T12:52:30.472Z,2.20
2019-05-18T12:55:18.322Z,1.95
2019-05-18T12:58:03.411Z,2.42
2019-05-18T13:00:48.471Z,2.80
2019-05-18T13:03:33.225Z,2.40
2019-05-18T13:06:18.471Z,1.82
2019-05-18T13:09:05.331Z,1.90
2019-05-18T13:11:50.278Z,1.90
2019-05-18T13:14:35.244Z,2.10
2019-05-18T13:17:21.357Z,1.40
2019-05-18T13:20:07.950Z,1.82
2019-05-18T13:22:52.763Z,2.05
2019-05-18T13:25:37.712Z,2.33
2019-05-18T13:28:22.545Z,2.27
2019-05-18T13:31:07.401Z,1.50
2019-05-18T13:33:52.536Z,1.85
2019-05-18T13:36:37.191Z,2.35
2019-05-18T13:39:22.022Z,1.80
2019-05-18T13:42:06.693Z,2.00
2019-05-18T13:44:51.569Z,1.72
2019-05-18T13:47:36.613Z,1.70
2019-05-18T13:50:22.169Z,2.00
2019-05-18T13:53:07.129Z,1.80
2019-05-18T13:55:51.917Z,2.10
2019-05-18T13:58:36.718Z,1.70
2019-05-18T14:01:21.494Z,2.30
2019-05-18T14:04:12.642Z,2.10
2019-05-18T14:06:57.793Z,2.27
2019-05-18T14:09:42.630Z,2.33
2019-05-18T14:12:27.541Z,1.85
2019-05-18T14:15:12.909Z,1.80
2019-05-18T14:17:57.970Z,1.60
2019-05-18T14:20:42.754Z,1.50
2019-05-18T14:23:27.489Z,1.40
2019-05-18T14:26:12.438Z,1.90
2019-05-18T14:28:57.232Z,2.20
2019-05-18T14:31:42.006Z,1.87
2019-05-18T14:34:26.816Z,1.87
2019-05-18T14:37:11.717Z,2.17
2019-05-18T14:39:56.490Z,1.92
2019-05-18T14:42:41.574Z,2.30
2019-05-18T14:45:26.946Z,2.30
2019-05-18T14:48:11.673Z,1.87
2019-05-18T14:50:56.527Z,1.80
2019-05-18T14:53:41.860Z,1.95
2019-05-18T14:56:26.981Z,2.02
2019-05-18T14:59:12.014Z,1.70
2019-05-18T15:01:57.021Z,1.50
2019-05-18T15:04:41.761Z,1.60
2019-05-18T15:07:26.890Z,1.72
2019-05-18T15:10:12.326Z,1.15
2019-05-18T15:12:57.085Z,1.20
2019-05-18T15:15:42.253Z,1.27
2019-05-18T15:18:27.205Z,1.07
2019-05-18T15:21:12.640Z,1.00
2019-05-18T15:23:57.814Z,1.05
2019-05-18T15:26:42.717Z,1.60
2019-05-18T15:29:27.520Z,1.20
2019-05-18T15:32:12.430Z,1.57
2019-05-18T15:34:57.623Z,1.30
2019-05-18T15:37:43.738Z,1.62
2019-05-18T15:40:29.302Z,1.82
2019-05-18T15:43:14.214Z,1.80
2019-05-18T15:45:59.026Z,1.70
2019-05-18T15:48:43.982Z,1.90
2019-05-18T15:51:29.266Z,1.80
2019-05-18T15:54:14.444Z,1.80
2019-05-18T15:56:59.307Z,3.30
2019-05-18T15:59:44.706Z,2.60
2019-05-18T16:02:29.809Z,3.45
2019-05-18T16:05:14.966Z,12.60
2019-05-18T16:08:00.162Z,13.85
2019-05-18T16:10:45.072Z,19.20
2019-05-18T16:13:29.773Z,5.47
2019-05-18T16:16:14.815Z,1.15
2019-05-18T16:19:00.030Z,1.30
2019-05-18T16:21:45.735Z,1.45
2019-05-18T16:24:30.871Z,1.02
2019-05-18T16:27:15.747Z,1.00
2019-05-18T16:30:00.625Z,1.10
2019-05-18T16:32:45.720Z,1.20
2019-05-18T16:35:30.823Z,1.00
2019-05-18T16:38:16.174Z,1.12
2019-05-18T16:41:00.898Z,0.95
2019-05-18T16:43:45.842Z,1.07
2019-05-18T16:46:30.653Z,1.00
2019-05-18T16:49:15.388Z,1.42
2019-05-18T16:52:00.064Z,1.52
2019-05-18T16:54:44.843Z,1.55
2019-05-18T16:57:29.658Z,1.40
2019-05-18T17:00:16.749Z,1.52
2019-05-18T17:03:02.022Z,1.52
2019-05-18T17:05:46.763Z,1.90
2019-05-18T17:08:31.633Z,2.00
2019-05-18T17:11:16.485Z,2.12
2019-05-18T17:14:01.681Z,1.90
2019-05-18T17:16:46.522Z,1.85
2019-05-18T17:19:32.270Z,1.90
2019-05-18T17:22:17.613Z,1.70
2019-05-18T17:25:04.179Z,1.80
2019-05-18T17:27:49.061Z,1.77
2019-05-18T17:30:33.835Z,2.42
2019-05-18T17:33:18.502Z,2.35
2019-05-18T17:36:03.777Z,2.40
2019-05-18T17:38:48.971Z,2.33
2019-05-18T17:41:34.073Z,2.50
2019-05-18T17:44:18.862Z,1.98
2019-05-18T17:47:04.573Z,2.10
2019-05-18T17:49:49.802Z,2.25
2019-05-18T17:52:34.594Z,2.30
2019-05-18T17:55:19.443Z,2.20
2019-05-18T17:58:04.533Z,2.40
2019-05-18T18:00:49.209Z,2.92
2019-05-18T18:03:34.067Z,3.40
2019-05-18T18:06:19.103Z,2.60
2019-05-18T18:09:06.332Z,2.37
2019-05-18T18:11:51.174Z,2.62
2019-05-18T18:14:36.099Z,2.37
2019-05-18T18:17:21.246Z,2.37
2019-05-18T18:20:07.070Z,2.70
2019-05-18T18:22:51.884Z,2.50
2019-05-18T18:25:36.807Z,2.75
2019-05-18T18:28:21.523Z,2.08
2019-05-18T18:31:06.464Z,2.00
2019-05-18T18:33:51.838Z,1.90
2019-05-18T18:36:36.460Z,2.20
2019-05-18T18:39:21.296Z,1.67
2019-05-18T18:42:07.376Z,2.10
2019-05-18T18:44:52.639Z,2.10
2019-05-18T18:47:37.871Z,2.05
2019-05-18T18:50:22.598Z,2.30
2019-05-18T18:53:07.507Z,2.30
2019-05-18T18:55:52.222Z,1.80
2019-05-18T18:58:36.862Z,2.35
2019-05-18T19:01:21.774Z,2.20
2019-05-18T19:04:06.577Z,10.18
2019-05-18T19:06:51.464Z,3.17
2019-05-18T19:09:37.529Z,2.55
2019-05-18T19:12:23.262Z,2.87
2019-05-18T19:15:09.398Z,3.40
2019-05-18T19:17:54.478Z,3.35
2019-05-18T19:20:39.334Z,3.35
2019-05-18T19:23:24.420Z,3.72
2019-05-18T19:26:09.061Z,3.27
2019-05-18T19:28:54.083Z,3.30
2019-05-18T19:31:38.900Z,3.05
2019-05-18T19:34:23.654Z,3.30
2019-05-18T19:37:08.365Z,3.30
2019-05-18T19:39:53.160Z,3.37
2019-05-18T19:42:37.831Z,2.98
2019-05-18T19:45:22.530Z,3.27
2019-05-18T19:48:09.119Z,3.42
2019-05-18T19:50:54.127Z,3.45
2019-05-18T19:53:38.946Z,3.05
2019-05-18T19:56:23.632Z,4.08
2019-05-18T19:59:08.435Z,2.92
2019-05-18T20:01:53.207Z,3.22
2019-05-18T20:04:38.051Z,3.45
2019-05-18T20:07:23.509Z,3.65
2019-05-18T20:10:08.943Z,3.47
2019-05-18T20:12:54.269Z,2.92
2019-05-18T20:15:39.016Z,3.33
2019-05-18T20:18:23.758Z,3.40
2019-05-18T20:21:08.531Z,3.05
2019-05-18T20:23:53.265Z,3.25
2019-05-18T20:26:38.065Z,2.80
2019-05-18T20:29:22.993Z,2.72
2019-05-18T20:32:07.803Z,3.60
2019-05-18T20:34:52.761Z,3.12
2019-05-18T20:37:38.230Z,2.70
2019-05-18T20:40:23.531Z,3.02
2019-05-18T20:43:08.767Z,3.67
2019-05-18T20:45:53.555Z,3.65
2019-05-18T20:48:39.854Z,3.33
2019-05-18T20:51:24.933Z,2.42
2019-05-18T20:54:09.702Z,2.50
2019-05-18T20:56:54.769Z,2.75
2019-05-18T20:59:40.121Z,2.75
2019-05-18T21:02:25.003Z,2.72
2019-05-18T21:05:11.751Z,2.98
2019-05-18T21:07:57.035Z,3.50
2019-05-18T21:10:43.068Z,3.50
2019-05-18T21:13:28.148Z,3.35
2019-05-18T21:16:14.301Z,3.17
2019-05-18T21:18:58.878Z,2.77
2019-05-18T21:21:43.849Z,2.92
2019-05-18T21:24:28.727Z,3.12
2019-05-18T21:27:13.508Z,3.05
2019-05-18T21:29:58.543Z,3.20
2019-05-18T21:32:43.347Z,2.90
2019-05-18T21:35:28.161Z,2.77
2019-05-18T21:38:12.954Z,3.22
2019-05-18T21:40:57.787Z,3.33
2019-05-18T21:43:43.697Z,3.40
2019-05-18T21:46:28.382Z,4.10
2019-05-18T21:49:13.349Z,4.65
2019-05-18T21:51:58.094Z,3.90
2019-05-18T21:54:43.120Z,3.87
2019-05-18T21:57:27.810Z,3.50
2019-05-18T22:00:13.074Z,3.60
2019-05-18T22:02:59.855Z,3.20
2019-05-18T22:05:44.677Z,3.05
2019-05-18T22:08:29.478Z,3.00
2019-05-18T22:11:14.438Z,3.05
2019-05-18T22:13:59.330Z,3.35
2019-05-18T22:16:44.118Z,3.40
2019-05-18T22:19:29.000Z,3.70
2019-05-18T22:22:13.762Z,3.62
2019-05-18T22:24:58.616Z,4.28
2019-05-18T22:27:43.344Z,4.60
2019-05-18T22:30:28.216Z,5.10
2019-05-18T22:33:13.411Z,5.22
2019-05-18T22:35:58.317Z,5.87
2019-05-18T22:38:43.387Z,6.20
2019-05-18T22:41:28.311Z,6.45
2019-05-18T22:44:13.627Z,6.62
2019-05-18T22:46:58.447Z,6.78
2019-05-18T22:49:43.139Z,6.95
2019-05-18T22:52:28.010Z,6.60
2019-05-18T22:55:13.330Z,6.90
2019-05-18T22:57:58.583Z,6.65
2019-05-18T23:00:43.505Z,7.22
2019-05-18T23:03:28.349Z,7.30
2019-05-18T23:06:13.010Z,6.65
2019-05-18T23:08:57.780Z,7.25
2019-05-18T23:11:42.561Z,7.08
2019-05-18T23:14:27.386Z,7.37
2019-05-18T23:17:12.075Z,7.05
2019-05-18T23:19:56.892Z,7.47
2019-05-18T23:22:41.762Z,7.00
2019-05-18T23:25:26.528Z,7.05
2019-05-18T23:28:11.689Z,7.33
2019-05-18T23:30:56.477Z,6.80
2019-05-18T23:33:41.507Z,6.45
2019-05-18T23:36:27.615Z,6.35
2019-05-18T23:39:12.391Z,5.70
2019-05-18T23:41:57.230Z,7.40
2019-05-18T23:44:42.126Z,6.95
2019-05-18T23:47:26.993Z,6.78
2019-05-18T23:50:11.841Z,6.55
2019-05-18T23:52:57.713Z,7.33
2019-05-18T23:55:42.455Z,7.08
2019-05-18T23:58:27.342Z,6.30
